createdAt,value
2024-04-18T00:02:19.554Z,1.43
2024-04-18T00:04:46.552Z,1.30
2024-04-18T00:07:13.503Z,1.32
2024-04-18T00:09:40.556Z,1.21
2024-04-18T00:12:07.541Z,1.38
2024-04-18T00:14:34.472Z,1.16
2024-04-18T00:17:01.486Z,1.28
2024-04-18T00:19:28.454Z,1.18
2024-04-18T00:21:55.358Z,1.09
2024-04-18T00:24:22.310Z,1.26
2024-04-18T00:26:49.261Z,1.14
2024-04-18T00:29:16.207Z,1.32
2024-04-18T00:31:43.134Z,1.16
2024-04-18T00:34:10.116Z,1.24
2024-04-18T00:36:37.056Z,1.37
2024-04-18T00:39:04.037Z,1.17
2024-04-18T00:41:31.000Z,1.10
2024-04-18T00:44:00.314Z,1.22
2024-04-18T00:46:28.841Z,1.33
2024-04-18T00:48:55.840Z,1.20
2024-04-18T00:51:22.886Z,1.25
2024-04-18T00:53:49.834Z,1.35
2024-04-18T00:56:18.537Z,1.23
2024-04-18T00:58:45.776Z,1.34
2024-04-18T01:01:12.814Z,0.95
2024-04-18T01:03:39.831Z,1.06
2024-04-18T01:06:06.874Z,1.33
2024-04-18T01:08:33.820Z,1.22
2024-04-18T01:11:00.735Z,1.17
2024-04-18T01:13:27.711Z,1.25
2024-04-18T01:15:54.741Z,1.06
2024-04-18T01:18:21.738Z,1.12
2024-04-18T01:20:48.661Z,1.25
2024-04-18T01:23:15.594Z,1.15
2024-04-18T01:25:42.563Z,1.15
2024-04-18T01:28:09.500Z,1.19
2024-04-18T01:30:36.471Z,1.28
2024-04-18T01:33:03.569Z,1.17
2024-04-18T01:35:30.529Z,1.07
2024-04-18T01:37:57.465Z,1.08
2024-04-18T01:40:24.420Z,1.23
2024-04-18T01:42:51.386Z,1.33
2024-04-18T01:45:18.356Z,1.37
2024-04-18T01:47:45.375Z,1.29
2024-04-18T01:50:12.362Z,1.17
2024-04-18T01:52:39.317Z,1.19
2024-04-18T01:55:06.304Z,1.09
2024-04-18T01:57:33.272Z,1.18
2024-04-18T02:00:00.356Z,1.33
2024-04-18T02:02:27.354Z,1.22
2024-04-18T02:04:54.344Z,1.17
2024-04-18T02:07:21.294Z,1.38
2024-04-18T02:09:48.229Z,1.26
2024-04-18T02:12:15.313Z,1.05
2024-04-18T02:14:42.287Z,1.09
2024-04-18T02:17:09.240Z,1.05
2024-04-18T02:19:36.171Z,1.04
2024-04-18T02:22:03.112Z,1.07
2024-04-18T02:24:30.044Z,1.00
2024-04-18T02:26:56.981Z,1.07
2024-04-18T02:29:23.974Z,1.16
2024-04-18T02:31:50.947Z,1.15
2024-04-18T02:34:17.899Z,1.23
2024-04-18T02:36:44.931Z,1.20
2024-04-18T02:39:11.981Z,1.19
2024-04-18T02:41:38.906Z,1.26
2024-04-18T02:44:05.833Z,1.12
2024-04-18T02:46:32.749Z,1.16
2024-04-18T02:48:59.730Z,1.35
2024-04-18T02:51:26.731Z,1.15
2024-04-18T02:53:53.717Z,1.07
2024-04-18T02:56:20.639Z,1.11
2024-04-18T02:58:47.580Z,1.11
2024-04-18T03:01:14.637Z,0.98
2024-04-18T03:03:41.736Z,0.97
2024-04-18T03:06:08.732Z,1.01
2024-04-18T03:08:35.659Z,1.17
2024-04-18T03:11:02.568Z,1.10
2024-04-18T03:13:29.519Z,1.25
2024-04-18T03:15:56.456Z,1.24
2024-04-18T03:18:23.455Z,1.08
2024-04-18T03:20:50.381Z,0.99
2024-04-18T03:23:17.331Z,1.01
2024-04-18T03:25:44.248Z,1.01
2024-04-18T03:28:11.194Z,0.92
2024-04-18T03:30:38.182Z,0.87
2024-04-18T03:33:05.150Z,1.04
2024-04-18T03:35:32.089Z,0.87
2024-04-18T03:37:59.004Z,1.04
2024-04-18T03:40:25.952Z,1.04
2024-04-18T03:42:52.929Z,1.19
2024-04-18T03:45:19.972Z,0.98
2024-04-18T03:47:46.998Z,1.01
2024-04-18T03:50:14.011Z,1.08
2024-04-18T03:52:40.972Z,1.10
2024-04-18T03:55:07.977Z,0.95
2024-04-18T03:57:35.019Z,1.14
2024-04-18T04:00:01.953Z,1.11
2024-04-18T04:02:28.959Z,1.13
2024-04-18T04:04:58.864Z,1.01
2024-04-18T04:07:25.801Z,1.18
2024-04-18T04:09:52.798Z,1.21
2024-04-18T04:12:19.760Z,1.32
2024-04-18T04:14:46.738Z,1.12
2024-04-18T04:17:13.689Z,1.27
2024-04-18T04:19:40.651Z,1.28
2024-04-18T04:22:07.954Z,1.20
2024-04-18T04:24:34.960Z,1.18
2024-04-18T04:27:01.923Z,1.21
2024-04-18T04:29:28.838Z,1.15
2024-04-18T04:31:55.822Z,1.23
2024-04-18T04:34:22.807Z,1.56
2024-04-18T04:36:49.907Z,1.79
2024-04-18T04:39:16.894Z,6.76
2024-04-18T04:41:43.843Z,6.22
2024-04-18T04:44:10.775Z,1.46
2024-04-18T04:46:37.701Z,1.30
2024-04-18T04:49:04.852Z,1.13
2024-04-18T04:51:31.842Z,1.31
2024-04-18T04:53:58.782Z,1.22
2024-04-18T04:56:25.719Z,1.16
2024-04-18T04:58:52.670Z,2.08
2024-04-18T05:01:19.605Z,1.45
2024-04-18T05:03:46.613Z,1.49
2024-04-18T05:06:13.555Z,1.54
2024-04-18T05:08:40.490Z,1.44
2024-04-18T05:11:07.465Z,1.45
2024-04-18T05:13:34.454Z,1.60
2024-04-18T05:16:01.546Z,1.67
2024-04-18T05:18:28.595Z,1.82
2024-04-18T05:20:55.590Z,1.90
2024-04-18T05:23:22.536Z,2.12
2024-04-18T05:25:49.496Z,2.21
2024-04-18T05:28:16.444Z,2.40
2024-04-18T05:30:43.406Z,2.43
2024-04-18T05:33:10.386Z,2.24
2024-04-18T05:35:37.397Z,2.66
2024-04-18T05:38:04.360Z,2.66
2024-04-18T05:40:31.297Z,2.81
2024-04-18T05:42:58.258Z,2.99
2024-04-18T05:45:25.244Z,12.55
2024-04-18T05:47:52.356Z,3.05
2024-04-18T05:50:19.317Z,2.56
2024-04-18T05:52:46.226Z,2.55
2024-04-18T05:55:13.149Z,2.68
2024-04-18T05:57:40.070Z,2.87
2024-04-18T06:00:07.022Z,2.86
2024-04-18T06:02:34.043Z,2.85
2024-04-18T06:05:01.061Z,2.91
2024-04-18T06:07:27.991Z,2.69
2024-04-18T06:09:54.949Z,2.78
2024-04-18T06:12:21.962Z,2.84
2024-04-18T06:14:48.917Z,2.90
2024-04-18T06:17:15.842Z,2.93
2024-04-18T06:19:42.778Z,2.49
2024-04-18T06:22:09.738Z,2.69
2024-04-18T06:24:36.762Z,2.65
2024-04-18T06:27:03.718Z,2.66
2024-04-18T06:29:30.659Z,2.68
2024-04-18T06:31:57.646Z,2.70
2024-04-18T06:34:24.748Z,2.69
2024-04-18T06:36:51.826Z,2.58
2024-04-18T06:39:18.899Z,2.59
2024-04-18T06:41:45.896Z,2.95
2024-04-18T06:44:12.855Z,2.87
2024-04-18T06:46:48.707Z,2.69
2024-04-18T06:49:19.867Z,2.58
2024-04-18T06:51:46.856Z,2.56
2024-04-18T06:54:13.850Z,2.80
2024-04-18T06:56:40.801Z,2.58
2024-04-18T06:59:07.742Z,2.69
2024-04-18T07:01:34.677Z,2.56
2024-04-18T07:04:01.866Z,2.58
2024-04-18T07:06:28.990Z,4.31
2024-04-18T07:08:55.961Z,5.07
2024-04-18T07:11:22.887Z,2.72
2024-04-18T07:13:49.850Z,2.54
2024-04-18T07:16:16.799Z,2.72
2024-04-18T07:18:43.787Z,2.57
2024-04-18T07:21:10.763Z,2.59
2024-04-18T07:23:37.790Z,2.57
2024-04-18T07:26:04.767Z,2.47
2024-04-18T07:28:31.730Z,2.53
2024-04-18T07:30:58.755Z,2.75
2024-04-18T07:33:25.848Z,2.51
2024-04-18T07:35:52.903Z,2.65
2024-04-18T07:38:19.843Z,2.60
2024-04-18T07:40:46.820Z,2.45
2024-04-18T07:43:13.815Z,2.32
2024-04-18T07:45:40.864Z,2.33
2024-04-18T07:48:07.955Z,2.39
2024-04-18T07:50:34.968Z,2.33
2024-04-18T07:53:09.270Z,2.12
2024-04-18T07:55:37.354Z,2.04
2024-04-18T07:58:05.251Z,2.10
2024-04-18T08:00:34.392Z,2.16
2024-04-18T08:03:04.741Z,1.98
2024-04-18T08:05:36.176Z,2.20
2024-04-18T08:08:08.233Z,2.11
2024-04-18T08:10:52.050Z,2.30
2024-04-18T08:13:27.707Z,2.29
2024-04-18T08:18:23.961Z,2.08
2024-04-18T08:20:50.481Z,2.09
2024-04-18T08:23:17.233Z,2.23
2024-04-18T08:25:43.950Z,2.22
2024-04-18T08:28:10.574Z,2.19
2024-04-18T08:30:37.231Z,2.18
2024-04-18T08:33:03.872Z,2.10
2024-04-18T08:35:30.517Z,2.07
2024-04-18T08:37:57.052Z,1.98
2024-04-18T08:40:23.621Z,1.92
2024-04-18T08:42:50.165Z,2.13
2024-04-18T08:45:16.737Z,2.27
2024-04-18T08:47:43.540Z,2.13
2024-04-18T08:50:10.114Z,2.16
2024-04-18T08:52:38.727Z,1.93
2024-04-18T08:55:05.524Z,1.81
2024-04-18T08:57:32.142Z,1.84
2024-04-18T08:59:58.888Z,1.88
2024-04-18T09:02:25.573Z,2.08
2024-04-18T09:04:52.145Z,2.04
2024-04-18T09:07:18.674Z,2.11
2024-04-18T09:09:45.231Z,1.96
2024-04-18T09:12:11.807Z,2.13
2024-04-18T09:14:38.761Z,2.13
2024-04-18T09:17:05.709Z,1.86
2024-04-18T09:19:32.667Z,2.00
2024-04-18T09:21:59.636Z,1.74
2024-04-18T09:24:26.593Z,1.93
2024-04-18T09:26:53.634Z,1.92
2024-04-18T09:29:20.573Z,1.92
2024-04-18T09:31:47.487Z,1.98
2024-04-18T09:34:14.559Z,1.71
2024-04-18T09:36:41.693Z,1.74
2024-04-18T09:39:08.789Z,1.96
2024-04-18T09:41:35.792Z,1.74
2024-04-18T09:44:02.758Z,1.93
2024-04-18T09:46:29.753Z,1.96
2024-04-18T09:48:56.797Z,1.79
2024-04-18T09:51:23.910Z,1.77
2024-04-18T09:53:51.976Z,1.60
2024-04-18T09:56:18.947Z,1.73
2024-04-18T09:58:45.997Z,1.68
2024-04-18T10:01:13.106Z,5.12
2024-04-18T10:03:40.223Z,8.02
2024-04-18T10:06:07.217Z,3.63
2024-04-18T10:08:34.148Z,3.49
2024-04-18T10:11:01.122Z,1.91
2024-04-18T10:13:28.061Z,2.15
2024-04-18T10:15:55.113Z,7.53
2024-04-18T10:18:22.157Z,3.96
2024-04-18T10:20:49.279Z,2.88
2024-04-18T10:23:16.215Z,2.18
2024-04-18T10:25:43.181Z,2.75
2024-04-18T10:28:10.104Z,5.23
2024-04-18T10:30:37.108Z,2.75
2024-04-18T10:33:04.294Z,2.99
2024-04-18T10:35:31.386Z,2.21
2024-04-18T10:37:58.398Z,1.94
2024-04-18T10:40:25.334Z,2.22
2024-04-18T10:42:52.276Z,2.13
2024-04-18T10:45:19.439Z,1.95
2024-04-18T10:47:49.371Z,1.97
2024-04-18T10:50:18.683Z,2.34
2024-04-18T10:52:45.234Z,2.07
2024-04-18T10:55:11.825Z,2.07
2024-04-18T10:57:38.449Z,1.96
2024-04-18T11:00:05.125Z,1.96
2024-04-18T11:02:33.705Z,1.91
2024-04-18T11:05:00.484Z,1.87
2024-04-18T11:07:27.052Z,1.89
2024-04-18T11:09:53.620Z,1.74
2024-04-18T11:12:20.205Z,14.28
2024-04-18T11:14:46.817Z,4.31
2024-04-18T11:17:13.416Z,1.96
2024-04-18T11:19:39.951Z,1.79
2024-04-18T11:22:06.490Z,1.95
2024-04-18T11:24:33.109Z,1.99
2024-04-18T11:26:59.707Z,2.01
2024-04-18T11:29:26.250Z,2.02
2024-04-18T11:31:52.846Z,1.95
2024-04-18T11:34:19.419Z,2.19
2024-04-18T11:36:46.047Z,1.97
2024-04-18T11:39:12.733Z,1.95
2024-04-18T11:41:39.303Z,1.78
2024-04-18T11:44:05.922Z,1.86
2024-04-18T11:46:32.499Z,1.85
2024-04-18T11:48:59.610Z,1.83
2024-04-18T11:51:26.638Z,1.75
2024-04-18T11:53:53.644Z,1.93
2024-04-18T11:56:20.576Z,2.05
2024-04-18T11:58:47.550Z,2.13
2024-04-18T12:01:14.561Z,2.32
2024-04-18T12:03:41.705Z,2.25
2024-04-18T12:06:08.969Z,2.11
2024-04-18T12:08:36.093Z,1.93
2024-04-18T12:11:03.146Z,2.01
2024-04-18T12:13:30.115Z,1.97
2024-04-18T12:15:57.213Z,2.01
2024-04-18T12:18:26.473Z,1.95
2024-04-18T12:20:54.878Z,2.20
2024-04-18T12:23:21.869Z,1.96
2024-04-18T12:25:48.428Z,2.12
2024-04-18T12:28:14.983Z,1.94
2024-04-18T12:30:41.558Z,1.75
2024-04-18T12:33:08.247Z,1.64
2024-04-18T12:35:34.844Z,1.82
2024-04-18T12:38:01.442Z,1.77
2024-04-18T12:40:27.979Z,2.05
2024-04-18T12:42:54.552Z,1.68
2024-04-18T12:45:21.173Z,2.00
2024-04-18T12:47:47.810Z,1.74
2024-04-18T12:50:14.476Z,1.83
2024-04-18T12:52:41.053Z,2.01
2024-04-18T12:55:07.727Z,1.81
2024-04-18T12:57:34.368Z,1.84
2024-04-18T13:00:00.952Z,1.50
2024-04-18T13:02:27.725Z,1.38
2024-04-18T13:04:54.384Z,1.36
2024-04-18T13:07:20.964Z,2.05
2024-04-18T13:09:47.532Z,1.58
2024-04-18T13:12:14.105Z,1.62
2024-04-18T13:14:40.688Z,1.64
2024-04-18T13:17:07.233Z,1.46
2024-04-18T13:19:33.770Z,1.31
2024-04-18T13:22:00.849Z,1.27
2024-04-18T13:24:28.017Z,1.24
2024-04-18T13:26:54.999Z,1.03
2024-04-18T13:29:22.034Z,1.11
2024-04-18T13:31:49.023Z,1.32
2024-04-18T13:34:16.023Z,1.65
2024-04-18T13:36:42.972Z,1.70
2024-04-18T13:39:09.966Z,2.32
2024-04-18T13:41:37.081Z,2.42
2024-04-18T13:44:04.032Z,2.70
2024-04-18T13:46:30.967Z,2.84
2024-04-18T13:48:58.015Z,2.82
2024-04-18T13:51:25.016Z,2.77
2024-04-18T13:53:51.973Z,2.83
2024-04-18T13:56:18.929Z,3.11
2024-04-18T13:58:45.868Z,2.73
2024-04-18T14:01:12.881Z,2.64
2024-04-18T14:03:39.902Z,2.77
2024-04-18T14:06:07.016Z,2.80
2024-04-18T14:08:34.013Z,2.83
2024-04-18T14:11:01.035Z,2.43
2024-04-18T14:13:28.012Z,2.24
2024-04-18T14:15:54.941Z,2.08
2024-04-18T14:18:21.892Z,2.07
2024-04-18T14:20:48.873Z,2.13
2024-04-18T14:23:15.783Z,2.06
2024-04-18T14:25:42.732Z,2.05
2024-04-18T14:28:16.357Z,2.04
2024-04-18T14:30:50.841Z,2.09
2024-04-18T14:33:17.859Z,2.15
2024-04-18T14:35:44.937Z,1.97
2024-04-18T14:38:11.878Z,2.30
2024-04-18T14:40:40.907Z,2.32
2024-04-18T14:43:09.432Z,2.44
2024-04-18T14:45:36.382Z,2.18
2024-04-18T14:48:03.495Z,1.88
2024-04-18T14:50:30.488Z,1.64
2024-04-18T14:52:57.426Z,1.88
2024-04-18T14:55:24.381Z,2.08
2024-04-18T14:57:51.389Z,1.94
2024-04-18T15:00:18.398Z,2.13
2024-04-18T15:02:45.472Z,2.02
2024-04-18T15:05:12.406Z,1.73
2024-04-18T15:07:39.334Z,1.88
2024-04-18T15:10:06.331Z,1.80
2024-04-18T15:12:33.296Z,1.70
2024-04-18T15:15:00.289Z,1.78
2024-04-18T15:17:27.345Z,1.75
2024-04-18T15:19:54.364Z,1.62
2024-04-18T15:22:21.310Z,2.06
2024-04-18T15:24:48.273Z,2.01
2024-04-18T15:27:15.269Z,2.19
2024-04-18T15:29:42.248Z,2.34
2024-04-18T15:32:09.186Z,2.02
2024-04-18T15:34:36.130Z,2.16
2024-04-18T15:37:03.178Z,2.38
2024-04-18T15:39:30.190Z,2.39
2024-04-18T15:41:57.144Z,2.65
2024-04-18T15:44:24.095Z,2.71
2024-04-18T15:46:51.024Z,2.44
2024-04-18T15:49:17.966Z,2.59
2024-04-18T15:51:45.047Z,2.43
2024-04-18T15:54:12.026Z,2.48
2024-04-18T15:56:38.966Z,2.84
2024-04-18T15:59:05.886Z,3.01
2024-04-18T16:01:32.892Z,2.75
2024-04-18T16:04:00.060Z,2.89
2024-04-18T16:06:27.191Z,3.07
2024-04-18T16:08:54.149Z,2.95
2024-04-18T16:11:21.098Z,2.80
2024-04-18T16:13:48.056Z,2.92
2024-04-18T16:16:15.013Z,2.91
2024-04-18T16:18:42.138Z,2.74
2024-04-18T16:21:09.150Z,2.83
2024-04-18T16:23:36.211Z,2.62
2024-04-18T16:26:03.183Z,2.43
2024-04-18T16:28:30.158Z,2.12
2024-04-18T16:30:57.131Z,2.18
2024-04-18T16:33:24.123Z,1.88
2024-04-18T16:35:51.147Z,1.92
2024-04-18T16:38:18.153Z,1.84
2024-04-18T16:40:45.119Z,2.04
2024-04-18T16:43:12.107Z,2.10
2024-04-18T16:45:39.073Z,2.03
2024-04-18T16:48:06.176Z,2.11
2024-04-18T16:50:33.187Z,1.86
2024-04-18T16:53:00.144Z,2.03
2024-04-18T16:55:27.073Z,2.08
2024-04-18T16:57:54.002Z,2.01
2024-04-18T17:00:20.939Z,1.89
2024-04-18T17:02:47.971Z,2.01
2024-04-18T17:05:14.911Z,1.84
2024-04-18T17:07:41.834Z,2.18
2024-04-18T17:10:08.893Z,2.45
2024-04-18T17:12:35.970Z,2.42
2024-04-18T17:15:02.924Z,2.82
2024-04-18T17:17:32.487Z,2.86
2024-04-18T17:19:59.432Z,3.28
2024-04-18T17:22:26.362Z,3.09
2024-04-18T17:24:53.305Z,3.04
2024-04-18T17:27:20.283Z,3.40
2024-04-18T17:29:47.292Z,3.31
2024-04-18T17:32:14.248Z,3.51
2024-04-18T17:34:41.235Z,3.38
2024-04-18T17:37:08.248Z,3.52
2024-04-18T17:39:35.242Z,3.70
2024-04-18T17:42:02.180Z,3.23
2024-04-18T17:44:29.119Z,3.29
2024-04-18T17:46:56.075Z,3.55
2024-04-18T17:49:23.121Z,3.63
2024-04-18T17:51:50.159Z,3.49
2024-04-18T17:54:17.123Z,3.44
2024-04-18T17:56:44.073Z,3.36
2024-04-18T17:59:11.003Z,3.28
2024-04-18T18:01:41.619Z,2.98
2024-04-18T18:04:09.495Z,3.45
2024-04-18T18:06:36.682Z,3.56
2024-04-18T18:09:03.770Z,3.24
2024-04-18T18:11:30.728Z,3.08
2024-04-18T18:13:57.712Z,3.06
2024-04-18T18:16:24.723Z,2.98
2024-04-18T18:18:51.775Z,3.21
2024-04-18T18:21:18.937Z,2.91
2024-04-18T18:23:45.923Z,3.29
2024-04-18T18:26:12.868Z,2.77
2024-04-18T18:28:39.887Z,2.85
2024-04-18T18:31:06.836Z,2.83
2024-04-18T18:33:33.837Z,3.05
2024-04-18T18:36:00.954Z,3.13
2024-04-18T18:38:27.893Z,3.49
2024-04-18T18:40:54.834Z,3.08
2024-04-18T18:43:21.801Z,3.36
2024-04-18T18:45:48.753Z,3.16
2024-04-18T18:48:15.868Z,3.19
2024-04-18T18:50:42.905Z,3.25
2024-04-18T18:53:09.885Z,3.19
2024-04-18T18:55:36.844Z,3.16
2024-04-18T18:58:03.799Z,3.39
2024-04-18T19:00:30.870Z,3.00
2024-04-18T19:02:58.931Z,3.32
2024-04-18T19:05:26.768Z,3.45
2024-04-18T19:07:53.749Z,3.28
2024-04-18T19:10:20.714Z,3.72
2024-04-18T19:12:47.700Z,3.09
2024-04-18T19:15:14.880Z,3.18
2024-04-18T19:17:41.869Z,3.09
2024-04-18T19:20:08.500Z,3.21
2024-04-18T19:22:35.055Z,3.04
2024-04-18T19:25:01.582Z,3.09
2024-04-18T19:27:28.212Z,3.57
2024-04-18T19:29:54.907Z,3.35
2024-04-18T19:32:21.459Z,3.11
2024-04-18T19:34:48.022Z,3.17
2024-04-18T19:37:14.598Z,2.79
2024-04-18T19:39:41.229Z,2.86
2024-04-18T19:42:07.876Z,2.91
2024-04-18T19:44:34.574Z,3.18
2024-04-18T19:47:01.238Z,2.99
2024-04-18T19:49:27.788Z,3.32
2024-04-18T19:51:54.341Z,3.02
2024-04-18T19:54:20.922Z,3.18
2024-04-18T19:56:47.503Z,3.22
2024-04-18T19:59:14.041Z,3.25
2024-04-18T20:01:40.670Z,3.19
2024-04-18T20:04:07.330Z,2.91
2024-04-18T20:06:33.951Z,3.18
2024-04-18T20:09:00.711Z,3.16
2024-04-18T20:11:27.465Z,3.15
2024-04-18T20:13:54.071Z,3.29
2024-04-18T20:16:20.604Z,2.87
2024-04-18T20:18:47.818Z,3.23
2024-04-18T20:21:14.862Z,2.95
2024-04-18T20:23:41.787Z,3.09
2024-04-18T20:26:08.731Z,2.98
2024-04-18T20:28:35.751Z,3.75
2024-04-18T20:31:02.685Z,3.06
2024-04-18T20:33:29.730Z,2.98
2024-04-18T20:35:56.722Z,2.95
2024-04-18T20:38:23.649Z,2.90
2024-04-18T20:40:50.629Z,2.87
2024-04-18T20:43:17.555Z,3.20
2024-04-18T20:45:44.544Z,3.45
2024-04-18T20:48:11.622Z,3.11
2024-04-18T20:50:38.664Z,2.98
2024-04-18T20:53:05.650Z,2.92
2024-04-18T20:55:32.627Z,3.35
2024-04-18T20:57:59.586Z,3.20
2024-04-18T21:00:26.585Z,3.21
2024-04-18T21:02:53.586Z,3.58
2024-04-18T21:05:20.520Z,3.23
2024-04-18T21:07:47.465Z,3.61
2024-04-18T21:10:14.526Z,3.64
2024-04-18T21:12:41.701Z,3.60
2024-04-18T21:15:08.821Z,3.51
2024-04-18T21:17:36.070Z,4.22
2024-04-18T21:20:03.178Z,4.33
2024-04-18T21:22:30.198Z,4.26
2024-04-18T21:24:57.162Z,3.99
2024-04-18T21:27:24.158Z,3.92
2024-04-18T21:29:51.163Z,3.61
2024-04-18T21:32:18.104Z,4.34
2024-04-18T21:34:45.025Z,4.54
2024-04-18T21:37:11.957Z,4.98
2024-04-18T21:39:39.030Z,4.49
2024-04-18T21:42:06.109Z,4.68
2024-04-18T21:44:33.016Z,5.88
2024-04-18T21:46:59.955Z,6.49
2024-04-18T21:49:26.935Z,4.64
2024-04-18T21:51:53.946Z,4.95
2024-04-18T21:54:21.026Z,5.47
2024-04-18T21:56:48.003Z,5.03
2024-04-18T21:59:14.915Z,4.95
2024-04-18T22:01:41.891Z,4.49
2024-04-18T22:04:08.872Z,4.42
2024-04-18T22:06:35.950Z,4.85
2024-04-18T22:09:02.887Z,4.85
2024-04-18T22:11:29.982Z,4.66
2024-04-18T22:13:57.066Z,4.27
2024-04-18T22:16:23.998Z,4.41
2024-04-18T22:18:51.074Z,4.67
2024-04-18T22:21:18.175Z,4.72
2024-04-18T22:23:46.275Z,4.68
2024-04-18T22:26:14.200Z,4.79
2024-04-18T22:28:41.148Z,4.76
2024-04-18T22:31:08.113Z,4.80
2024-04-18T22:33:35.131Z,4.99
2024-04-18T22:36:02.110Z,4.89
2024-04-18T22:38:29.038Z,4.84
2024-04-18T22:40:55.946Z,5.04
2024-04-18T22:43:22.869Z,5.18
2024-04-18T22:45:49.846Z,5.49
2024-04-18T22:48:16.921Z,5.03
2024-04-18T22:50:44.001Z,5.03
2024-04-18T22:53:10.910Z,5.31
2024-04-18T22:55:37.857Z,5.13
2024-04-18T22:58:05.937Z,5.40
2024-04-18T23:00:33.008Z,5.18
2024-04-18T23:02:59.991Z,5.53
2024-04-18T23:05:26.912Z,5.23
2024-04-18T23:07:53.857Z,5.03
2024-04-18T23:10:20.789Z,4.80
2024-04-18T23:12:47.746Z,5.03
2024-04-18T23:15:14.755Z,4.65
2024-04-18T23:17:41.787Z,4.80
2024-04-18T23:20:08.804Z,4.76
2024-04-18T23:22:35.741Z,4.97
2024-04-18T23:25:02.657Z,4.87
2024-04-18T23:27:29.612Z,4.77
2024-04-18T23:29:56.556Z,4.66
2024-04-18T23:32:23.508Z,4.65
2024-04-18T23:34:50.465Z,4.65
2024-04-18T23:37:17.381Z,4.47
2024-04-18T23:39:44.370Z,4.46
2024-04-18T23:42:11.378Z,5.25
2024-04-18T23:44:38.362Z,5.32
2024-04-18T23:47:05.266Z,5.10
2024-04-18T23:49:32.191Z,4.77
2024-04-18T23:51:59.108Z,5.07
2024-04-18T23:54:26.094Z,4.95
2024-04-18T23:56:53.048Z,5.28
2024-04-18T23:59:19.967Z,5.15
